createdAt,value
2022-12-27T00:01:35.259Z,100.00
2022-12-27T00:04:08.980Z,100.00
2022-12-27T00:06:43.197Z,100.00
2022-12-27T00:09:11.613Z,100.00
2022-12-27T00:11:39.320Z,100.00
2022-12-27T00:14:07.636Z,100.00
2022-12-27T00:16:35.236Z,100.00
2022-12-27T00:19:02.940Z,100.00
2022-12-27T00:21:31.711Z,100.00
2022-12-27T00:24:00.514Z,100.00
2022-12-27T00:26:30.276Z,100.00
2022-12-27T00:28:58.749Z,100.00
2022-12-27T00:31:29.808Z,100.00
2022-12-27T00:33:59.602Z,100.00
2022-12-27T00:36:28.653Z,100.00
2022-12-27T00:38:59.428Z,100.00
2022-12-27T00:41:27.249Z,100.00
2022-12-27T00:43:54.772Z,100.00
2022-12-27T00:46:22.500Z,100.00
2022-12-27T00:48:49.619Z,100.00
2022-12-27T00:51:22.558Z,100.00
2022-12-27T00:53:50.934Z,100.00
2022-12-27T00:56:28.421Z,100.00
2022-12-27T00:59:03.271Z,100.00
2022-12-27T01:01:33.650Z,100.00
2022-12-27T01:04:01.954Z,100.00
2022-12-27T01:06:33.352Z,100.00
2022-12-27T01:09:01.681Z,100.00
2022-12-27T01:11:29.361Z,100.00
2022-12-27T01:14:00.388Z,100.00
2022-12-27T01:16:29.666Z,100.00
2022-12-27T01:18:58.533Z,100.00
2022-12-27T01:21:27.563Z,100.00
2022-12-27T01:23:55.606Z,100.00
2022-12-27T01:26:24.456Z,100.00
2022-12-27T01:28:53.535Z,100.00
2022-12-27T01:31:27.959Z,100.00
2022-12-27T01:33:58.834Z,100.00
2022-12-27T01:36:28.804Z,100.00
2022-12-27T01:38:56.760Z,100.00
2022-12-27T01:41:52.782Z,100.00
2022-12-27T01:44:47.274Z,100.00
2022-12-27T01:47:26.667Z,100.00
2022-12-27T01:50:24.168Z,100.00
2022-12-27T01:53:23.385Z,100.00
2022-12-27T01:56:05.307Z,100.00
2022-12-27T01:58:35.765Z,100.00
2022-12-27T02:03:56.789Z,100.00
2022-12-27T02:06:26.023Z,100.00
2022-12-27T02:09:28.457Z,100.00
2022-12-27T02:11:58.720Z,100.00
2022-12-27T02:14:35.633Z,100.00
2022-12-27T02:17:11.235Z,100.00
2022-12-27T02:20:09.411Z,100.00
2022-12-27T02:23:26.242Z,100.00
2022-12-27T02:26:17.778Z,100.00
2022-12-27T02:29:13.643Z,100.00
2022-12-27T02:31:56.605Z,100.00
2022-12-27T02:34:29.735Z,100.00
2022-12-27T02:37:04.316Z,100.00
2022-12-27T02:39:37.115Z,100.00
2022-12-27T02:42:24.762Z,100.00
2022-12-27T02:45:11.005Z,100.00
2022-12-27T02:47:57.775Z,100.00
2022-12-27T02:50:55.554Z,100.00
2022-12-27T02:53:43.096Z,100.00
2022-12-27T02:56:47.573Z,100.00
2022-12-27T02:59:24.664Z,100.00
2022-12-27T03:02:41.049Z,100.00
2022-12-27T03:05:30.951Z,100.00
2022-12-27T03:08:06.808Z,100.00
2022-12-27T03:11:07.485Z,100.00
2022-12-27T03:14:06.186Z,100.00
2022-12-27T03:16:43.534Z,100.00
2022-12-27T03:19:41.220Z,100.00
2022-12-27T03:22:30.158Z,100.00
2022-12-27T03:25:16.979Z,100.00
2022-12-27T03:28:08.702Z,100.00
2022-12-27T03:30:57.698Z,100.00
2022-12-27T03:33:27.986Z,100.00
2022-12-27T03:36:15.967Z,100.00
2022-12-27T03:39:06.756Z,100.00
2022-12-27T03:41:59.200Z,100.00
2022-12-27T03:44:27.764Z,100.00
2022-12-27T03:47:01.472Z,100.00
2022-12-27T03:49:44.362Z,100.00
2022-12-27T03:52:20.487Z,100.00
2022-12-27T03:54:51.397Z,100.00
2022-12-27T03:57:24.491Z,100.00
2022-12-27T03:59:51.807Z,100.00
2022-12-27T04:02:19.469Z,100.00
2022-12-27T04:04:47.388Z,100.00
2022-12-27T04:07:14.995Z,100.00
2022-12-27T04:10:01.499Z,100.00
2022-12-27T04:12:47.461Z,100.00
2022-12-27T04:15:34.768Z,100.00
2022-12-27T04:18:20.406Z,100.00
2022-12-27T04:21:12.115Z,100.00
2022-12-27T04:23:57.844Z,100.00
2022-12-27T04:26:44.487Z,100.00
2022-12-27T04:29:30.300Z,100.00
2022-12-27T04:32:16.094Z,100.00
2022-12-27T04:34:43.012Z,100.00
2022-12-27T04:37:11.485Z,100.00
2022-12-27T04:39:38.606Z,100.00
2022-12-27T04:42:24.973Z,100.00
2022-12-27T04:45:15.124Z,100.00
2022-12-27T04:48:01.247Z,100.00
2022-12-27T04:50:51.299Z,100.00
2022-12-27T04:53:39.314Z,100.00
2022-12-27T04:56:20.152Z,100.00
2022-12-27T04:59:06.951Z,100.00
2022-12-27T05:01:53.194Z,100.00
2022-12-27T05:04:22.584Z,100.00
2022-12-27T05:06:49.983Z,100.00
2022-12-27T05:09:35.992Z,100.00
2022-12-27T05:12:43.914Z,100.00
2022-12-27T05:15:13.276Z,100.00
2022-12-27T05:17:40.651Z,100.00
2022-12-27T05:20:08.697Z,100.00
2022-12-27T05:23:00.712Z,100.00
2022-12-27T05:25:40.305Z,100.00
2022-12-27T05:28:10.787Z,100.00
2022-12-27T05:30:42.126Z,100.00
2022-12-27T05:33:09.839Z,100.00
2022-12-27T05:35:37.923Z,100.00
2022-12-27T05:38:06.798Z,100.00
2022-12-27T05:40:34.758Z,100.00
2022-12-27T05:43:03.443Z,100.00
2022-12-27T05:45:33.306Z,100.00
2022-12-27T05:48:02.114Z,100.00
2022-12-27T05:50:36.637Z,100.00
2022-12-27T05:53:06.118Z,100.00
2022-12-27T05:55:35.543Z,100.00
2022-12-27T05:58:03.040Z,100.00
2022-12-27T06:00:32.470Z,100.00
2022-12-27T06:02:59.640Z,100.00
2022-12-27T06:05:28.194Z,100.00
2022-12-27T06:07:55.317Z,100.00
2022-12-27T06:10:22.834Z,100.00
2022-12-27T06:12:50.206Z,100.00
2022-12-27T06:15:17.732Z,100.00
2022-12-27T06:17:46.106Z,100.00
2022-12-27T06:20:20.079Z,100.00
2022-12-27T06:22:47.272Z,99.75
2022-12-27T06:25:15.469Z,100.00
2022-12-27T06:27:48.770Z,100.00
2022-12-27T06:30:16.479Z,100.00
2022-12-27T06:32:43.729Z,99.71
2022-12-27T06:35:12.286Z,99.74
2022-12-27T06:37:39.667Z,100.00
2022-12-27T06:40:08.578Z,100.00
2022-12-27T06:42:36.128Z,100.00
2022-12-27T06:45:03.681Z,100.00
2022-12-27T06:47:32.326Z,100.00
2022-12-27T06:49:59.520Z,100.00
2022-12-27T06:52:27.029Z,100.00
2022-12-27T06:54:54.362Z,100.00
2022-12-27T06:57:21.878Z,100.00
2022-12-27T06:59:55.907Z,100.00
2022-12-27T07:02:23.078Z,100.00
2022-12-27T07:04:50.433Z,100.00
2022-12-27T07:07:18.019Z,100.00
2022-12-27T07:09:57.601Z,100.00
2022-12-27T07:12:25.068Z,100.00
2022-12-27T07:14:52.511Z,100.00
2022-12-27T07:17:20.177Z,100.00
2022-12-27T07:19:53.632Z,100.00
2022-12-27T07:22:21.846Z,100.00
2022-12-27T07:24:51.126Z,100.00
2022-12-27T07:27:19.896Z,100.00
2022-12-27T07:29:47.534Z,100.00
2022-12-27T07:32:14.957Z,100.00
2022-12-27T07:34:42.436Z,99.49
2022-12-27T07:37:10.827Z,99.20
2022-12-27T07:39:39.206Z,98.28
2022-12-27T07:42:08.560Z,97.66
2022-12-27T07:44:36.446Z,97.19
2022-12-27T07:47:03.873Z,96.09
2022-12-27T07:49:32.205Z,95.99
2022-12-27T07:51:59.767Z,95.86
2022-12-27T07:54:27.102Z,95.63
2022-12-27T07:56:54.584Z,95.70
2022-12-27T07:59:23.081Z,94.91
2022-12-27T08:02:05.558Z,94.16
2022-12-27T08:04:37.603Z,93.58
2022-12-27T08:07:08.289Z,93.95
2022-12-27T08:09:38.241Z,93.51
2022-12-27T08:12:05.989Z,93.46
2022-12-27T08:14:33.424Z,92.07
2022-12-27T08:17:29.993Z,92.30
2022-12-27T08:19:57.670Z,91.60
2022-12-27T08:22:26.983Z,90.77
2022-12-27T08:24:56.246Z,90.76
2022-12-27T08:27:25.383Z,90.17
2022-12-27T08:29:52.961Z,89.57
2022-12-27T08:32:26.720Z,89.42
2022-12-27T08:34:55.078Z,88.42
2022-12-27T08:37:22.521Z,88.15
2022-12-27T08:39:49.954Z,87.16
2022-12-27T08:42:17.443Z,87.17
2022-12-27T08:44:44.884Z,83.52
2022-12-27T08:47:12.263Z,80.44
2022-12-27T08:49:39.751Z,77.94
2022-12-27T08:52:08.276Z,75.78
2022-12-27T08:54:36.771Z,74.86
2022-12-27T08:57:04.556Z,73.88
2022-12-27T08:59:31.640Z,72.86
2022-12-27T09:01:58.822Z,71.92
2022-12-27T09:04:28.139Z,71.77
2022-12-27T09:06:57.869Z,72.18
2022-12-27T09:09:27.136Z,70.87
2022-12-27T09:11:54.775Z,71.88
2022-12-27T09:14:23.224Z,69.90
2022-12-27T09:16:56.896Z,70.34
2022-12-27T09:19:25.188Z,71.45
2022-12-27T09:21:52.519Z,70.69
2022-12-27T09:24:20.059Z,68.44
2022-12-27T09:26:59.760Z,67.42
2022-12-27T09:29:26.842Z,67.22
2022-12-27T09:31:55.139Z,67.18
2022-12-27T09:34:23.730Z,66.81
2022-12-27T09:36:56.812Z,67.61
2022-12-27T09:39:24.270Z,69.38
2022-12-27T09:42:48.645Z,70.08
2022-12-27T09:45:18.481Z,71.06
2022-12-27T09:48:12.257Z,71.13
2022-12-27T09:51:02.378Z,70.21
2022-12-27T09:53:45.369Z,71.86
2022-12-27T09:56:16.216Z,70.24
2022-12-27T09:58:59.025Z,68.38
2022-12-27T10:01:36.591Z,70.12
2022-12-27T10:04:09.019Z,69.50
2022-12-27T10:06:51.846Z,69.55
2022-12-27T10:09:29.491Z,67.45
2022-12-27T10:12:18.048Z,66.21
2022-12-27T10:15:00.123Z,64.88
2022-12-27T10:17:37.295Z,67.14
2022-12-27T10:20:23.797Z,65.95
2022-12-27T10:23:05.889Z,67.03
2022-12-27T10:25:35.823Z,69.79
2022-12-27T10:28:14.768Z,69.41
2022-12-27T10:30:43.592Z,69.82
2022-12-27T10:33:31.912Z,70.20
2022-12-27T10:35:59.344Z,70.51
2022-12-27T10:38:33.874Z,71.02
2022-12-27T10:41:30.230Z,71.33
2022-12-27T10:43:57.663Z,71.42
2022-12-27T10:46:32.725Z,71.23
2022-12-27T10:49:20.651Z,67.96
2022-12-27T10:51:49.556Z,65.57
2022-12-27T10:54:27.462Z,63.80
2022-12-27T10:56:56.616Z,62.68
2022-12-27T10:59:27.411Z,62.71
2022-12-27T11:02:00.813Z,61.65
2022-12-27T11:04:30.695Z,65.38
2022-12-27T11:07:04.450Z,67.11
2022-12-27T11:09:35.276Z,67.96
2022-12-27T11:12:17.343Z,69.50
2022-12-27T11:15:06.603Z,70.39
2022-12-27T11:17:37.756Z,71.85
2022-12-27T11:20:23.060Z,71.18
2022-12-27T11:23:13.833Z,71.19
2022-12-27T11:25:57.071Z,70.38
2022-12-27T11:28:39.887Z,67.46
2022-12-27T11:31:13.397Z,64.72
2022-12-27T11:33:53.412Z,64.32
2022-12-27T11:36:27.931Z,63.63
2022-12-27T11:38:56.314Z,63.35
2022-12-27T11:41:55.048Z,63.24
2022-12-27T11:44:34.292Z,64.18
2022-12-27T11:47:38.071Z,62.18
2022-12-27T11:50:42.169Z,61.05
2022-12-27T11:53:18.634Z,60.43
2022-12-27T11:56:20.366Z,61.26
2022-12-27T11:59:07.464Z,61.09
2022-12-27T12:01:40.517Z,62.70
2022-12-27T12:04:43.224Z,64.18
2022-12-27T12:07:42.984Z,67.26
2022-12-27T12:10:46.125Z,69.16
2022-12-27T12:13:50.631Z,69.01
2022-12-27T12:16:33.304Z,69.89
2022-12-27T12:19:07.900Z,70.61
2022-12-27T12:22:10.413Z,70.71
2022-12-27T12:25:03.315Z,70.02
2022-12-27T12:27:47.866Z,70.51
2022-12-27T12:30:41.651Z,70.09
2022-12-27T12:33:38.792Z,72.19
2022-12-27T12:36:34.867Z,70.66
2022-12-27T12:39:16.334Z,67.84
2022-12-27T12:42:05.357Z,67.81
2022-12-27T12:44:44.279Z,66.76
2022-12-27T12:47:18.416Z,67.88
2022-12-27T12:50:13.168Z,67.99
2022-12-27T12:53:12.435Z,68.89
2022-12-27T12:56:01.438Z,70.79
2022-12-27T12:58:55.974Z,71.38
2022-12-27T13:01:55.534Z,70.58
2022-12-27T13:04:34.650Z,68.16
2022-12-27T13:07:07.315Z,67.81
2022-12-27T13:10:09.624Z,68.77
2022-12-27T13:13:00.164Z,69.28
2022-12-27T13:15:47.219Z,70.24
2022-12-27T13:18:52.700Z,70.60
2022-12-27T13:21:43.472Z,70.26
2022-12-27T13:24:11.841Z,69.98
2022-12-27T13:26:53.998Z,70.92
2022-12-27T13:29:36.047Z,70.20
2022-12-27T13:32:28.930Z,70.90
2022-12-27T13:35:21.890Z,70.81
2022-12-27T13:38:07.790Z,70.95
2022-12-27T13:40:40.258Z,71.06
2022-12-27T13:43:27.625Z,71.46
2022-12-27T13:46:19.697Z,69.82
2022-12-27T13:49:19.367Z,67.74
2022-12-27T13:51:53.303Z,66.86
2022-12-27T13:54:50.868Z,66.27
2022-12-27T13:57:26.021Z,66.31
2022-12-27T14:00:09.366Z,65.88
2022-12-27T14:03:19.417Z,67.06
2022-12-27T14:06:03.169Z,68.17
2022-12-27T14:08:51.948Z,70.42
2022-12-27T14:11:30.720Z,70.38
2022-12-27T14:13:59.426Z,70.69
2022-12-27T14:16:43.179Z,70.78
2022-12-27T14:19:29.402Z,70.94
2022-12-27T14:22:18.706Z,70.82
2022-12-27T14:24:52.063Z,72.05
2022-12-27T14:27:58.915Z,71.56
2022-12-27T14:31:02.218Z,73.01
2022-12-27T14:33:54.391Z,72.92
2022-12-27T14:36:55.469Z,72.96
2022-12-27T14:40:01.171Z,73.63
2022-12-27T14:42:31.026Z,74.07
2022-12-27T14:45:25.997Z,74.66
2022-12-27T14:48:11.497Z,74.78
2022-12-27T14:51:58.811Z,74.55
2022-12-27T14:54:31.046Z,75.30
2022-12-27T14:57:22.601Z,75.19
2022-12-27T14:59:55.448Z,76.17
2022-12-27T15:03:13.312Z,77.02
2022-12-27T15:06:07.093Z,75.91
2022-12-27T15:09:05.412Z,75.98
2022-12-27T15:11:50.311Z,76.70
2022-12-27T15:14:32.733Z,78.10
2022-12-27T15:18:00.639Z,77.98
2022-12-27T15:20:44.128Z,78.08
2022-12-27T15:23:47.773Z,78.07
2022-12-27T15:26:32.810Z,78.21
2022-12-27T15:29:24.349Z,78.24
2022-12-27T15:32:01.204Z,78.58
2022-12-27T15:34:57.143Z,78.66
2022-12-27T15:37:51.500Z,78.58
2022-12-27T15:40:34.380Z,78.04
2022-12-27T15:43:27.564Z,77.92
2022-12-27T15:46:12.027Z,78.18
2022-12-27T15:49:27.350Z,78.57
2022-12-27T15:52:14.166Z,78.72
2022-12-27T15:55:15.604Z,78.77
2022-12-27T15:57:57.733Z,79.08
2022-12-27T16:00:25.299Z,79.11
2022-12-27T16:02:54.374Z,78.60
2022-12-27T16:05:22.631Z,79.39
2022-12-27T16:07:59.304Z,79.11
2022-12-27T16:10:41.326Z,79.53
2022-12-27T16:13:11.547Z,79.59
2022-12-27T16:15:54.371Z,79.16
2022-12-27T16:18:28.921Z,78.68
2022-12-27T16:21:20.921Z,78.82
2022-12-27T16:23:51.464Z,78.51
2022-12-27T16:26:29.192Z,78.85
2022-12-27T16:29:06.211Z,79.53
2022-12-27T16:31:45.839Z,80.26
2022-12-27T16:34:30.829Z,80.19
2022-12-27T16:37:01.185Z,80.10
2022-12-27T16:39:45.364Z,80.38
2022-12-27T16:42:13.634Z,80.11
2022-12-27T16:45:03.193Z,80.61
2022-12-27T16:48:02.358Z,80.96
2022-12-27T16:50:45.209Z,81.10
2022-12-27T16:53:32.960Z,81.01
2022-12-27T16:56:31.507Z,80.36
2022-12-27T16:58:58.743Z,80.40
2022-12-27T17:01:26.451Z,80.77
2022-12-27T17:03:56.687Z,80.55
2022-12-27T17:06:33.657Z,80.50
2022-12-27T17:09:11.781Z,80.43
2022-12-27T17:11:47.896Z,81.09
2022-12-27T17:14:32.010Z,81.54
2022-12-27T17:17:14.772Z,81.92
2022-12-27T17:20:00.378Z,82.94
2022-12-27T17:22:35.042Z,82.94
2022-12-27T17:25:05.025Z,82.96
2022-12-27T17:27:37.569Z,82.77
2022-12-27T17:30:24.257Z,83.40
2022-12-27T17:33:17.915Z,83.56
2022-12-27T17:36:10.224Z,83.93
2022-12-27T17:39:06.479Z,84.03
2022-12-27T17:42:04.223Z,84.25
2022-12-27T17:44:58.499Z,84.75
2022-12-27T17:47:41.957Z,85.20
2022-12-27T17:50:16.707Z,85.26
2022-12-27T17:53:32.969Z,85.32
2022-12-27T17:56:30.959Z,85.64
2022-12-27T17:59:23.800Z,85.99
2022-12-27T18:01:54.804Z,86.74
2022-12-27T18:04:35.063Z,87.51
2022-12-27T18:07:05.667Z,87.66
2022-12-27T18:09:51.261Z,87.69
2022-12-27T18:12:31.339Z,87.53
2022-12-27T18:15:15.654Z,87.64
2022-12-27T18:17:56.553Z,87.98
2022-12-27T18:20:29.341Z,88.41
2022-12-27T18:23:03.545Z,88.13
2022-12-27T18:25:37.956Z,88.23
2022-12-27T18:28:09.660Z,88.41
2022-12-27T18:30:43.598Z,88.65
2022-12-27T18:33:15.788Z,88.73
2022-12-27T18:35:52.028Z,89.26
2022-12-27T18:38:47.441Z,89.53
2022-12-27T18:41:21.576Z,89.91
2022-12-27T18:44:00.149Z,90.28
2022-12-27T18:46:32.668Z,91.15
2022-12-27T18:49:01.241Z,91.56
2022-12-27T18:51:38.327Z,92.52
2022-12-27T18:54:29.845Z,92.96
2022-12-27T18:57:07.262Z,93.22
2022-12-27T18:59:36.641Z,93.59
2022-12-27T19:02:35.323Z,94.00
2022-12-27T19:05:39.179Z,94.96
2022-12-27T19:08:17.690Z,95.47
2022-12-27T19:10:52.211Z,95.33
2022-12-27T19:13:28.196Z,95.72
2022-12-27T19:16:02.135Z,96.46
2022-12-27T19:18:38.633Z,96.89
2022-12-27T19:21:15.455Z,96.32
2022-12-27T19:23:49.446Z,96.26
2022-12-27T19:26:17.248Z,96.27
2022-12-27T19:28:46.508Z,96.68
2022-12-27T19:31:22.205Z,97.46
2022-12-27T19:33:55.141Z,97.31
2022-12-27T19:36:34.720Z,97.14
2022-12-27T19:39:02.418Z,97.42
2022-12-27T19:41:32.107Z,98.12
2022-12-27T19:44:00.170Z,98.19
2022-12-27T19:46:31.076Z,98.16
2022-12-27T19:51:46.312Z,98.04
2022-12-27T19:54:17.560Z,97.44
2022-12-27T19:56:45.523Z,97.53
2022-12-27T19:59:19.655Z,97.10
2022-12-27T20:01:47.184Z,97.24
2022-12-27T20:04:16.627Z,97.79
2022-12-27T20:06:48.831Z,98.20
2022-12-27T20:09:19.315Z,98.36
2022-12-27T20:11:48.756Z,98.62
2022-12-27T20:14:18.620Z,98.91
2022-12-27T20:16:48.149Z,99.52
2022-12-27T20:19:18.713Z,100.00
2022-12-27T20:21:47.474Z,100.00
2022-12-27T20:24:17.294Z,100.00
2022-12-27T20:26:47.356Z,100.00
2022-12-27T20:29:15.935Z,100.00
2022-12-27T20:31:48.876Z,99.84
2022-12-27T20:34:16.701Z,99.78
2022-12-27T20:36:45.021Z,99.61
2022-12-27T20:39:12.503Z,99.01
2022-12-27T20:41:41.905Z,99.00
2022-12-27T20:44:09.698Z,99.15
2022-12-27T20:46:40.633Z,98.21
2022-12-27T20:49:10.107Z,97.27
2022-12-27T20:51:37.912Z,96.40
2022-12-27T20:54:05.667Z,95.67
2022-12-27T20:56:35.476Z,95.12
2022-12-27T20:59:04.391Z,94.37
2022-12-27T21:01:32.257Z,93.83
2022-12-27T21:03:59.974Z,93.29
2022-12-27T21:06:33.467Z,93.26
2022-12-27T21:09:08.745Z,92.77
2022-12-27T21:11:42.031Z,92.73
2022-12-27T21:14:12.603Z,92.33
2022-12-27T21:16:40.558Z,92.25
2022-12-27T21:19:08.768Z,92.05
2022-12-27T21:21:38.760Z,91.74
2022-12-27T21:24:08.368Z,91.38
2022-12-27T21:26:38.299Z,91.15
2022-12-27T21:29:12.559Z,90.89
2022-12-27T21:31:39.872Z,90.73
2022-12-27T21:34:08.218Z,90.24
2022-12-27T21:36:36.954Z,89.71
2022-12-27T21:39:06.548Z,89.22
2022-12-27T21:41:38.134Z,88.70
2022-12-27T21:44:05.889Z,88.09
2022-12-27T21:46:37.965Z,87.73
2022-12-27T21:49:13.483Z,87.67
2022-12-27T21:51:43.364Z,87.16
2022-12-27T21:54:14.152Z,87.35
2022-12-27T21:56:42.624Z,87.00
2022-12-27T21:59:12.284Z,86.78
2022-12-27T22:01:50.022Z,86.26
2022-12-27T22:04:21.667Z,86.44
2022-12-27T22:06:49.343Z,86.17
2022-12-27T22:09:17.503Z,85.94
2022-12-27T22:11:46.979Z,86.15
2022-12-27T22:14:14.143Z,86.54
2022-12-27T22:16:41.726Z,86.44
2022-12-27T22:19:11.249Z,86.31
2022-12-27T22:21:39.790Z,86.74
2022-12-27T22:24:07.647Z,86.72
2022-12-27T22:26:37.641Z,86.52
2022-12-27T22:29:06.447Z,86.53
2022-12-27T22:31:38.279Z,86.29
2022-12-27T22:34:06.342Z,86.46
2022-12-27T22:36:34.664Z,86.08
2022-12-27T22:39:02.967Z,85.30
2022-12-27T22:41:33.276Z,84.72
2022-12-27T22:44:03.112Z,84.54
2022-12-27T22:46:58.630Z,84.41
2022-12-27T22:49:19.955Z,84.47
2022-12-27T22:51:47.455Z,84.44
2022-12-27T22:54:14.987Z,84.25
2022-12-27T22:56:43.274Z,84.58
2022-12-27T22:59:14.218Z,84.50
2022-12-27T23:01:44.083Z,84.63
2022-12-27T23:04:13.641Z,84.63
2022-12-27T23:06:41.760Z,84.64
2022-12-27T23:09:10.495Z,84.78
2022-12-27T23:11:41.240Z,85.09
2022-12-27T23:14:16.729Z,85.09
2022-12-27T23:16:48.512Z,85.00
2022-12-27T23:19:18.688Z,84.63
2022-12-27T23:21:46.024Z,84.81
2022-12-27T23:24:14.264Z,85.09
2022-12-27T23:26:42.688Z,85.66
2022-12-27T23:29:14.212Z,86.05
2022-12-27T23:31:54.859Z,86.67
2022-12-27T23:34:28.645Z,87.04
2022-12-27T23:36:59.408Z,87.94
2022-12-27T23:39:27.132Z,87.94
2022-12-27T23:41:55.109Z,88.29
2022-12-27T23:44:32.907Z,88.75
2022-12-27T23:47:03.670Z,89.37
2022-12-27T23:49:31.419Z,89.89
2022-12-27T23:51:58.801Z,90.42
2022-12-27T23:54:26.272Z,91.04
2022-12-27T23:56:53.804Z,92.05
2022-12-27T23:59:21.316Z,92.93
